Accueil
METAR-TAF:

METAR-TAF

Aéroports :

Siegen, Allemagne

latitude: 50-42-28N, longitude: 008-04-59E, altitude: 602 m

Observation

Le bulletin a été fait il y a 8 heures et 53 minutes, à 18:50 UTC
Vent 7 kt de sud-ouest
Température 19°C
Humidité 56%
Pression 1013 hPa
Visibilité 10 km ou plus

METAR: EDGS 221850Z 22007KT 9999 FEW36 19/10 Q1013

Heure: 05:43 (03:43 UTC)

Prévision

Le bulletin a été fait il y a 10 heures et 43 minutes, à 17:00 UTC
Prévision valable du 22 à 18 UTC au 23 à 03 UTC
Vent 7 kt de sud
Visibilité 10 km ou plus
Nuages épars à une hauteur de 4500 ft
Evoluant progressivement
du 22 à 18 UTC au 22 à 21 UTC
Vent 8 kt de sud-ouest

TAF: EDGS 221700Z 2218/2303 17007KT 9999 SCT045 BECMG 2218/2221 23008KT

Observations et prévisions météorologiques de plus de 4000 aéroports (messages METAR et TAF).

Les stations disponibles sont représentées par des disques jaunes et rouges sur la carte.

Passer la souris dessus pour voir le nom de la station.

Cliquer dessus pour voir les observations et prévisions météorologiques.

Pour changer de carte: cliquez sur les boutons verts avec une croix noire pour zoomer, sur le bouton vert avec un tiret pour effectuer un zoom arrière, ou sur les flèches vertes pour les cartes adjacentes.


METAR-TAF: